Derniers résultats

La Passe Pierre

10 Km

20 Km

Challenge 2022

 LogoChallengeNewsletter

Voir la vidéo de présentation

LogoVideoChallenge

Lire le règlement  2022

La cagnotte "Chronopale 2022" à partager entre tous les coureurs classés sur les 9 épreuves sera de 1300€ (en bons d'achat).
Vous êtes 45 après la 3ème épreuve (soit 29€) 

Date des épreuves 2022
  1.  06/03/22 Semi Marathon de la Terre des 2 Caps à Hervelinghen (Sauf pour les cadets)
  2.  01/05/22 La Ronde du Fort de l'Heurt à Le Portel 10 Km (nature plage et falaise) 
  3.  07/05/22 Les 6 Miles de Pont de Briques
  4.  05/06/22 La Wim'Run à Wimereux 10 Km
  5.  19/06/22 Trail de la Capelle 10 Km
  6.  09/10/22 Les Foulées Bleues à Saint Martin Boulogne 10 Km
  7.  20/11/22 Les Foulées Outreloises à Outreau  10 Km
  8.  27/11/22 Les Foulées de la Sainte Catherine à Menneville 10 Km
  9.  xx/xx/xx Le 10 de Carreau de Desvres 10 Km

 

Nous contacter

Chronopale
59 Rue Léonce TOBO
62200 Boulogne sur mer
06 60 17 22 13
contact@chronopale.fr
www.chronopale.fr

 

11Km

11 Km Hermine Run Nature du 03/03/19 (Réelle 10,7)
Rang Dossard Nom Prénom Temps Cat Rang Cat Ecart Ecart Cat Club Vitesse Km/h Temps au Km
1 79 GRIVART VALENTIN 00:44:10 SEM 1 00:00:00 00:00:00 AC CAPELLOIS 14,536 04:08
2 68 BOUTIN JULIEN 00:45:30 SEM 2 00:01:20 00:01:20 RC ARRAS 14,110 04:15
3 59 SOUDAIN MATTHIEU 00:45:35 SEM 3 00:01:25 00:01:25 - 14,084 04:16
4 18 LEGRAND ALEXIS 00:48:45 SEM 4 00:04:35 00:04:35 Bourthoise de services 13,169 04:33
5 383 MERLIN NICOLAS 00:48:54 V1M 1 00:04:44 00:00:00 TOUQUET TRAIL NATURE 13,129 04:34
6 51 BOURIEZ Valentin 00:50:13 ESM 1 00:06:03 00:00:00 . 12,785 04:42
7 82 TINCHON DIDIER 00:51:05 V2M 1 00:06:55 00:00:00 BERCK A C O 12,568 04:46
8 111 CARON FRANCOIS 00:52:06 SEM 5 00:07:56 00:07:56 . 12,322 04:52
9 105 DASZUK MAXIME 00:52:45 SEM 6 00:08:35 00:08:35 AS ETAPLES TRIATHLON 12,171 04:56
10 90 BOUTTE DOMINIQUE 00:53:04 V2M 2 00:08:54 00:01:59 ASD HESDIN 12,098 04:58
11 1 BERTHE Pascal 00:53:49 V1M 2 00:09:39 00:04:55 . 11,929 05:02
12 34 MACON NICOLAS 00:53:52 SEM 7 00:09:42 00:09:42 - 11,918 05:02
13 57 BULTE OLIVIER 00:55:53 SEM 8 00:11:43 00:11:43 VTT WAILLY 11,488 05:13
14 97 BOUTOILLE LIONEL 00:56:00 V2M 3 00:11:50 00:04:55 - 11,464 05:14
15 96 KAPUSTA MATTEO 00:56:44 CAM 1 00:12:34 00:00:00 SERVINS AC 11,316 05:18
16 86 LAGACHE STEPHANE 00:57:17 V1M 3 00:13:07 00:08:23 . 11,207 05:21
17 94 LASSALLE AURELIEN 00:59:30 SEM 9 00:15:20 00:15:20 . 10,790 05:34
18 98 BOUTOILLE ANTHONY 00:59:51 SEM 10 00:15:41 00:15:41 - 10,727 05:36
19 84 REGNIER MICKAEL 01:01:01 SEM 11 00:16:51 00:16:51 . 10,522 05:42
20 33 LENOIR STEPHANE 01:01:41 V2M 4 00:17:31 00:10:36 Baco 10,408 05:46
21 39 PUCHOIS MATHIEU 01:01:59 SEM 12 00:17:49 00:17:49 . 10,358 05:48
22 107 DUFOUR MATHIEU 01:02:00 V1M 4 00:17:50 00:13:06 . 10,355 05:48
23 80 HOEL BENOIT 01:02:04 SEM 13 00:17:54 00:17:54 . 10,344 05:48
24 42 CHEMELLO Stéphane 01:02:07 V1M 5 00:17:57 00:13:13 Les tantouzes 10,335 05:48
25 47 DHÉNIN Philippe 01:02:07 V1M 6 00:17:57 00:13:13 . 10,335 05:48
26 22 BONDOIS Eliot 01:02:17 SEM 14 00:18:07 00:18:07 . 10,308 05:49
27 9 LESUEUR Sébastien 01:02:33 SEM 15 00:18:23 00:18:23 Olco 10,264 05:51
28 109 FLAHAUT CYRIL 01:02:39 SEM 16 00:18:29 00:18:29 TRIATHLON CLUB DE MONTREUIL 10,247 05:51
29 110 TROLLE JULIEN 01:02:40 SEM 17 00:18:30 00:18:30 TRIATHLON CLUB DE MONTREUIL 10,245 05:51
30 50 MAGNIER BLAISE 01:03:06 SEM 18 00:18:56 00:18:56 . 10,174 05:54
31 66 BRIFFAUT Nicolas 01:03:21 SEM 19 00:19:11 00:19:11 . 10,134 05:55
32 71 QUESTE Alexi 01:03:29 JUM 1 00:19:19 00:00:00 . 10,113 05:56
33 77 CARPENTIER GREGORY 01:03:47 V1M 7 00:19:37 00:14:53 - 10,065 05:58
34 21 PETIAUX Gregoire 01:03:50 CAM 2 00:19:40 00:07:06 Élan frugeois 10,057 05:58
35 19 VANTIEGHEM FLAVIE 01:03:50 CAF 1 00:19:40 00:00:00 ELAN FRUGEOIS 10,057 05:58
36 28 BRUNEL SEBASTIEN 01:04:20 SEM 20 00:20:10 00:20:10 - 9,979 06:01
37 55 LAURENT Christian 01:04:49 V1M 8 00:20:39 00:15:55 . 9,905 06:03
38 69 MOUILLARD DANIEL 01:04:58 V1M 9 00:20:48 00:16:04 Asec / vivavron 9,882 06:04
39 89 DELSART FABIEN 01:05:15 SEM 21 00:21:05 00:21:05 . 9,839 06:06
40 58 PUCHOIS Alexandre 01:05:26 SEM 22 00:21:16 00:21:16 . 9,812 06:07
41 64 CUVILLIER JOEL 01:06:17 V2M 5 00:22:07 00:15:12 . 9,686 06:12
42 100 DEBAS GERARD 01:06:34 V4M 1 00:22:24 00:00:00 - 9,644 06:13
43 63 VANDERZYPPE THOMAS 01:07:08 SEM 23 00:22:58 00:22:58 . 9,563 06:16
44 27 NIELLEN OLIVIER 01:07:14 V1M 10 00:23:04 00:18:20 . 9,549 06:17
45 31 DUPONT Florian 01:07:16 SEM 24 00:23:06 00:23:06 . 9,544 06:17
46 95 LIBERT RENE 01:07:48 V1M 11 00:23:38 00:18:54 . 9,469 06:20
47 65 HAGNERE OLIVIER 01:07:49 V1M 12 00:23:39 00:18:55 - 9,467 06:20
48 73 MERLOT JEAN-GUY 01:08:08 V2M 6 00:23:58 00:17:03 Bourthes running 9,423 06:22
49 72 CAUDRON Nadia 01:08:12 V1F 1 00:24:02 00:00:00 . 9,413 06:22
50 45 VAAST Celine 01:08:45 V1F 2 00:24:35 00:00:33 . 9,338 06:26
51 6 LE FOLL Ludovic 01:08:47 V1M 13 00:24:37 00:19:53 Olco 9,334 06:26
52 7 MICOUD Alexandre 01:08:48 SEM 25 00:24:38 00:24:38 Olco 9,331 06:26
53 75 PENET Maximilien 01:09:20 SEM 26 00:25:10 00:25:10 Asec80 9,260 06:29
54 12 MARTIN Jean noel 01:09:21 V1M 14 00:25:11 00:20:27 . 9,257 06:29
55 113 DEMONCHAUX ALEXIS 01:09:39 V1M 15 00:25:29 00:20:45 . 9,218 06:31
56 53 FAY Maurice 01:09:49 V2M 7 00:25:39 00:18:44 . 9,196 06:31
57 70 FEVRIER JEAN-PIERRE 01:10:10 V3M 1 00:26:00 00:00:00 - 9,150 06:33
58 92 VASSEUR EMILIEN 01:10:14 SEM 27 00:26:04 00:26:04 . 9,141 06:34
59 20 GALLOO Jean-sébastien 01:11:22 V1M 16 00:27:12 00:22:28 . 8,996 06:40
60 46 DELAVAL Frederic 01:12:06 V1M 17 00:27:56 00:23:12 . 8,904 06:44
61 76 CARPENTIER FANNY 01:12:41 V1F 3 00:28:31 00:04:29 - 8,833 06:48
62 78 VERSELE Laurie 01:12:41 SEF 1 00:28:31 00:00:00 . 8,833 06:48
63 13 COUSIN ALEXANDRE 01:13:32 V1M 18 00:29:22 00:24:38 CAC CALOTERIE 8,731 06:52
64 26 MERLEN Arthur 01:14:16 SEM 28 00:30:06 00:30:06 Amateur 8,645 06:56
65 25 LEVEL Nadine 01:14:17 V3F 1 00:30:07 00:00:00 . 8,643 06:57
66 44 JALLADEAU Joséphine 01:14:18 SEF 2 00:30:08 00:01:37 . 8,641 06:57
67 106 BOURIEZ LUDOVIC 01:14:22 V2M 8 00:30:12 00:23:17 - 8,633 06:57
68 88 DEWAILLY CLEMENT 01:14:48 JUM 2 00:30:38 00:11:19 . 8,583 06:59
69 108 CAUX-SEILLIER SYLVIE 01:14:58 V2F 1 00:30:48 00:00:00 . 8,564 07:00
70 43 BOUDET-DUC Martine 01:15:04 V2F 2 00:30:54 00:00:06 . 8,552 07:01
71 99 BUCHET LAURENCE 01:15:44 V1F 4 00:31:34 00:07:32 BOURTHES RUNNING 8,477 07:05
72 62 DELEMARRE-HAUTBOUT Manuelle 01:15:47 V2F 3 00:31:37 00:00:49 Asec 8,472 07:05
73 81 DUQUESNE FRANCK 01:16:18 V1M 19 00:32:08 00:27:24 . 8,414 07:08
74 38 DE WAEGENAERE Valérie 01:16:32 V2F 4 00:32:22 00:01:34 . 8,389 07:09
75 32 BOUDET-DUC MARIE-ACHILLE 01:16:34 V2M 9 00:32:24 00:25:29 . 8,385 07:09
76 35 SERRET PASCAL 01:16:55 V2M 10 00:32:45 00:25:50 BLANC NEZ TRIATHLON 8,347 07:11
77 29 LEVEL Caroline 01:17:07 V2F 5 00:32:57 00:02:09 . 8,325 07:12
78 93 FLASQUE CELINE 01:17:44 V1F 5 00:33:34 00:09:32 . 8,259 07:16
79 101 PAQUES SABRINA 01:18:14 V1F 6 00:34:04 00:10:02 BOURTHES RUNNING 8,206 07:19
80 17 BULLOT Fabrice 01:19:17 V1M 20 00:35:07 00:30:23 . 8,098 07:25
81 48 BERNARD CHRISTELE 01:19:21 V1F 7 00:35:11 00:11:09 CAC CALOTERIE 8,091 07:25
82 61 TOUPET Mickael 01:19:55 SEM 29 00:35:45 00:35:45 . 8,033 07:28
83 103 DUCROCQ ELISA 01:20:54 CAF 2 00:36:44 00:17:04 - 7,936 07:34
84 104 POIDEVIN CHLOE 01:20:54 JUF 1 00:36:44 00:00:00 - 7,936 07:34
85 40 LEROY Timothee 01:21:54 SEM 30 00:37:44 00:37:44 . 7,839 07:39
86 41 VASSE Perrine 01:21:58 SEF 3 00:37:48 00:09:17 . 7,832 07:40
87 37 COQUERELLE OLIVIA 01:22:02 V1F 8 00:37:52 00:13:50 PATRIOTE CROSS DE GUINES 7,826 07:40
88 49 HAMY Gilles 01:22:08 V2M 11 00:37:58 00:31:03 Vivavron 7,817 07:41
89 74 LURETTE Laurence 01:23:35 V1F 9 00:39:25 00:15:23 . 7,681 07:49
90 85 LEJEUNE CATHE 01:23:36 SEF 4 00:39:26 00:10:55 . 7,679 07:49
91 4 SIX Anthony 01:24:13 SEM 31 00:40:03 00:40:03 . 7,623 07:52
92 24 LEGRAND Fabrice 01:26:13 V1M 21 00:42:03 00:37:19 . 7,446 08:03
93 3 DACQUIN Clemence 01:27:23 SEF 5 00:43:13 00:14:42 . 7,347 08:10
94 83 LELOUARD CEDRIC 01:29:36 V1M 22 00:45:26 00:40:42 . 7,165 08:22
95 60 OROPEZA Aurelie 01:29:38 SEF 6 00:45:28 00:16:57 . 7,163 08:23
96 23 JULIEN Michelle 01:30:25 V1F 10 00:46:15 00:22:13 . 7,100 08:27
97 91 SAGOT MAXIME 01:30:54 SEM 32 00:46:44 00:46:44 . 7,063 08:30
98 30 DELATTRE Sonia 01:31:23 V1F 11 00:47:13 00:23:11 . 7,025 08:32
99 56 BABIN Patrick 01:32:42 V2M 12 00:48:32 00:41:37 . 6,926 08:40
100 102 DUCROCQ VALERIE 01:37:39 V1F 12 00:53:29 00:29:27 - 6,575 09:08
101 15 BODDAËRT Amandine 01:37:40 SEF 7 00:53:30 00:24:59 . 6,573 09:08
102 14 HAMY Mickaël 01:37:42 V1M 23 00:53:32 00:48:48 . 6,571 09:08
103 8 QUELQUEJEU Arnaud 01:43:21 V1M 24 00:59:11 00:54:27 Olco 6,212 09:40

Agenda

Lun Mar Mer Jeu Ven Sam Dim
2
3
4
5
6
9
10
11
12
13
16
17
18
19
20

Courses confirmées

En attente d'ouverture des inscriptions ou Ouvertes

Foulées Ecuiriennes à Ecuires le samedi 28 mai 2022

La Wim'Run à Wimereux le dimanche de Pentecôte 5 juin 2022 (J)

Canicross d'Arleux le dimanche de Pentecôte 5 juin 2022

Les Foulées de la Pentecôtes à Wirwignes le lundi de Pentecôte 6 juin 2022

Trail de l'Ail Fumé à Arleux le lundi de Pentecôte 6 juin 2022

La Nat'Run Lumbroise à Lumbres le dimanche 12 Juin 2022

Foulées Samériennes à Samer le mercredi 22 juin 2022

Trail de Sangatte le samedi 18 juin 2022

La Fores'Trail à Guines le samedi 18 juin 2022 (J)

Sur les Traces du Mont Renard à La Capelle le dimanche 19 juin 2022

HB Run à Hames-Boucres le samedi 25 juin 2022

Les Foulées de l'Aa à Bourthes le dimanche 26 juin 2022

7 Vallées'Race à Hesdin le dimanche 26 juin 2022

Trail l'Aube des Templiers à La commanderie d'Avalleur le samedi 9 juillet 2022

La Stéllienne à Stella Plage le samedi 16 Juillet 2022

Les Foulées Vertes à Verton le samedi 30 juillet 2022

La Judocienne à St Josse sur mer le lundi 15 août 2022 

La Complice à Merlimont le samedi 27 Août 2022 (J)

Les Boucles d'Hardelot le samedi 3 septembre 2022 (J)

Le semi du Houblon à Arques le samedi 3 septembre 2022

5 et 10 Km de Tingry le dimanche 11 septembre 2022

Les Foulées Dannoises le dimanche 11 septembre 2022

Les 6 Miles de Cormont le samedi 17 septembre 2022

Les Courses de la Saint Firmin à La Calotterie le dimanche 18 septembre 2022 (J)

La Belleb'Run à Bellebrune le dimanche 18 septembre 2022

Le T3F à Le Portel le samedi 24 septembre 2022 (J)

Les Foulées Bleues à Saint Martin Boulogne le dimanche 9 octobre 2022

Trica Trail à Saint Tricat le dimanche 9 octobre 2022

La Coulonnoise à Coulogne le dimanche 6 novembre 2022

Le Cross de la Biche à Samer le vendredi 11 novembre 2022

Les Foulées Outreloises à Outreau le dimanche 13 novembre 2022 (J)

Canicross des Impressionnistes à Vernon le dimanche 13 novembre 2022

Trail des Mingeux de Maguette à Givenchy en Gohelle (J) le dimanche 20 novembre 2022

Trail de xx à xx dimanche 20 novembre 2022 

Foulées de la Sainte Catherine à Menneville le dimanche le 27 novembre 2022 

Canicross de la Côte d'Opale à Etaples le 4 dimanche 2022

La Vérotière à Berck sur mer le samedi 17 décembre 2022